createdAt,value
2018-01-21T00:00:09.682Z,72.90
2018-01-21T00:01:09.673Z,79.80
2018-01-21T00:02:09.661Z,73.40
2018-01-21T00:03:09.649Z,78.70
2018-01-21T00:04:09.642Z,79.20
2018-01-21T00:05:09.638Z,82.50
2018-01-21T00:06:09.622Z,78.70
2018-01-21T00:07:09.613Z,73.70
2018-01-21T00:08:09.605Z,72.10
2018-01-21T00:09:09.594Z,79.90
2018-01-21T00:10:09.584Z,73.50
2018-01-21T00:11:09.574Z,67.30
2018-01-21T00:12:09.564Z,66.50
2018-01-21T00:13:09.560Z,65.10
2018-01-21T00:14:09.546Z,60.40
2018-01-21T00:15:09.535Z,63.50
2018-01-21T00:16:09.526Z,62.50
2018-01-21T00:17:09.517Z,61.40
2018-01-21T00:18:09.506Z,62.80
2018-01-21T00:19:09.498Z,60.60
2018-01-21T00:20:09.485Z,57.00
2018-01-21T00:21:09.478Z,58.90
2018-01-21T00:22:09.466Z,58.30
2018-01-21T00:23:09.460Z,59.10
2018-01-21T00:24:09.448Z,59.60
2018-01-21T00:25:09.437Z,57.00
2018-01-21T00:26:09.428Z,54.70
2018-01-21T00:27:09.418Z,58.80
2018-01-21T00:28:09.407Z,56.70
2018-01-21T00:29:09.398Z,54.10
2018-01-21T00:30:09.389Z,55.40
2018-01-21T00:31:09.378Z,56.80
2018-01-21T00:32:09.370Z,52.70
2018-01-21T00:33:09.361Z,52.20
2018-01-21T00:34:09.346Z,56.20
2018-01-21T00:35:09.340Z,52.30
2018-01-21T00:36:09.330Z,50.60
2018-01-21T00:37:09.321Z,50.20
2018-01-21T00:38:09.316Z,50.00
2018-01-21T00:39:09.301Z,56.40
2018-01-21T00:40:09.293Z,58.70
2018-01-21T00:41:09.282Z,60.20
2018-01-21T00:42:09.273Z,61.20
2018-01-21T00:43:09.263Z,60.00
2018-01-21T00:44:09.256Z,63.80
2018-01-21T00:45:09.243Z,64.10
2018-01-21T00:46:09.235Z,64.00
2018-01-21T00:47:09.227Z,63.40
2018-01-21T00:48:09.218Z,66.40
2018-01-21T00:49:09.205Z,63.90
2018-01-21T00:50:09.195Z,55.30
2018-01-21T00:51:09.189Z,51.00
2018-01-21T00:52:09.176Z,53.90
2018-01-21T00:53:09.164Z,57.70
2018-01-21T00:54:09.156Z,55.50
2018-01-21T00:55:09.149Z,48.90
2018-01-21T00:56:09.138Z,50.40
2018-01-21T00:57:09.128Z,54.10
2018-01-21T00:58:09.118Z,56.30
2018-01-21T00:59:09.109Z,54.10
2018-01-21T01:00:09.100Z,52.80
2018-01-21T01:01:09.088Z,53.90
2018-01-21T01:02:09.078Z,57.10
2018-01-21T01:03:09.069Z,55.60
2018-01-21T01:04:09.059Z,57.90
2018-01-21T01:05:09.050Z,55.70
2018-01-21T01:06:09.040Z,55.10
2018-01-21T01:07:09.033Z,54.90
2018-01-21T01:08:09.021Z,52.80
2018-01-21T01:09:09.017Z,50.60
2018-01-21T01:10:09.001Z,52.20
2018-01-21T01:11:08.991Z,52.10
2018-01-21T01:12:08.982Z,51.80
2018-01-21T01:13:08.974Z,52.30
2018-01-21T01:14:08.960Z,49.30
2018-01-21T01:15:08.955Z,49.60
2018-01-21T01:16:08.942Z,48.50
2018-01-21T01:17:08.932Z,48.40
2018-01-21T01:18:08.921Z,47.00
2018-01-21T01:19:08.910Z,49.50
2018-01-21T01:20:08.902Z,49.20
2018-01-21T01:21:08.893Z,49.70
2018-01-21T01:22:08.882Z,48.10
2018-01-21T01:23:08.876Z,45.60
2018-01-21T01:24:08.860Z,49.30
2018-01-21T01:25:08.855Z,49.60
2018-01-21T01:26:08.844Z,49.00
2018-01-21T01:27:08.835Z,50.40
2018-01-21T01:28:08.824Z,48.70
2018-01-21T01:29:08.813Z,51.10
2018-01-21T01:30:08.799Z,51.60
2018-01-21T01:31:08.794Z,51.40
2018-01-21T01:32:08.784Z,50.20
2018-01-21T01:33:08.775Z,51.40
2018-01-21T01:34:08.769Z,49.10
2018-01-21T01:35:08.755Z,50.00
2018-01-21T01:36:08.746Z,48.40
2018-01-21T01:37:08.738Z,47.20
2018-01-21T01:38:08.724Z,46.40
2018-01-21T01:39:08.719Z,46.00
2018-01-21T01:40:08.710Z,46.60
2018-01-21T01:41:08.697Z,46.30
2018-01-21T01:42:08.686Z,45.40
2018-01-21T01:43:08.676Z,44.70
2018-01-21T01:44:08.670Z,45.10
2018-01-21T01:45:08.656Z,46.30
2018-01-21T01:46:08.642Z,44.90
2018-01-21T01:47:08.638Z,45.90
2018-01-21T01:48:08.630Z,45.50
2018-01-21T01:49:08.616Z,44.50
2018-01-21T01:50:08.609Z,44.40
2018-01-21T01:51:08.603Z,44.20
2018-01-21T01:52:08.589Z,42.00
2018-01-21T01:53:08.578Z,42.70
2018-01-21T01:54:08.569Z,42.60
2018-01-21T01:55:08.562Z,42.90
2018-01-21T01:56:08.549Z,41.20
2018-01-21T01:57:08.539Z,42.20
2018-01-21T01:58:08.530Z,44.30
2018-01-21T01:59:08.521Z,42.90
2018-01-21T02:00:08.510Z,45.10
2018-01-21T02:01:08.498Z,43.60
2018-01-21T02:02:08.490Z,40.30
2018-01-21T02:03:08.489Z,43.30
2018-01-21T02:04:08.470Z,43.70
2018-01-21T02:05:08.481Z,45.10
2018-01-21T02:06:08.451Z,45.30
2018-01-21T02:07:08.441Z,43.40
2018-01-21T02:08:08.432Z,43.60
2018-01-21T02:09:08.421Z,40.90
2018-01-21T02:10:08.412Z,42.90
2018-01-21T02:11:08.406Z,42.20
2018-01-21T02:12:08.393Z,42.40
2018-01-21T02:13:08.382Z,45.30
2018-01-21T02:14:08.373Z,46.20
2018-01-21T02:15:08.370Z,44.80
2018-01-21T02:16:08.364Z,44.20
2018-01-21T02:17:08.342Z,43.60
2018-01-21T02:18:08.334Z,41.30
2018-01-21T02:19:08.326Z,40.40
2018-01-21T02:20:08.313Z,40.60
2018-01-21T02:21:08.305Z,39.20
2018-01-21T02:22:08.295Z,41.80
2018-01-21T02:23:08.286Z,43.70
2018-01-21T02:24:08.275Z,43.70
2018-01-21T02:25:08.267Z,43.40
2018-01-21T02:26:08.252Z,41.60
2018-01-21T02:27:08.249Z,42.10
2018-01-21T02:28:08.239Z,39.30
2018-01-21T02:29:08.227Z,40.30
2018-01-21T02:30:08.226Z,40.20
2018-01-21T02:31:08.209Z,41.00
2018-01-21T02:32:08.252Z,40.50
2018-01-21T02:33:08.189Z,42.40
2018-01-21T02:34:08.179Z,39.30
2018-01-21T02:35:08.171Z,40.00
2018-01-21T02:36:08.175Z,39.60
2018-01-21T02:37:08.152Z,39.60
2018-01-21T02:38:08.142Z,41.00
2018-01-21T02:39:08.131Z,40.20
2018-01-21T02:40:08.125Z,42.40
2018-01-21T02:41:08.115Z,41.10
2018-01-21T02:42:08.105Z,41.40
2018-01-21T02:43:08.093Z,41.50
2018-01-21T02:44:08.088Z,42.60
2018-01-21T02:45:08.075Z,43.30
2018-01-21T02:46:08.065Z,42.80
2018-01-21T02:47:08.056Z,42.40
2018-01-21T02:48:08.048Z,41.60
2018-01-21T02:49:08.036Z,41.20
2018-01-21T02:50:08.027Z,41.00
2018-01-21T02:51:08.016Z,40.20
2018-01-21T02:52:08.007Z,39.00
2018-01-21T02:53:07.995Z,39.30
2018-01-21T02:54:07.986Z,39.50
2018-01-21T02:55:07.980Z,39.50
2018-01-21T02:56:07.975Z,39.80
2018-01-21T02:57:07.959Z,40.30
2018-01-21T02:58:07.950Z,38.90
2018-01-21T02:59:07.938Z,39.80
2018-01-21T03:00:07.929Z,40.00
2018-01-21T03:01:07.921Z,40.80
2018-01-21T03:02:07.909Z,40.90
2018-01-21T03:03:07.902Z,40.30
2018-01-21T03:04:07.892Z,39.00
2018-01-21T03:05:07.899Z,39.90
2018-01-21T03:06:07.869Z,40.10
2018-01-21T03:07:07.858Z,41.40
2018-01-21T03:08:07.850Z,38.60
2018-01-21T03:09:07.841Z,40.10
2018-01-21T03:10:07.827Z,40.30
2018-01-21T03:11:07.820Z,41.40
2018-01-21T03:12:07.814Z,40.80
2018-01-21T03:13:07.798Z,40.70
2018-01-21T03:14:07.790Z,40.90
2018-01-21T03:15:07.782Z,41.30
2018-01-21T03:16:07.765Z,39.80
2018-01-21T03:17:07.760Z,39.50
2018-01-21T03:18:07.750Z,40.80
2018-01-21T03:19:07.740Z,38.80
2018-01-21T03:20:07.730Z,40.30
2018-01-21T03:21:07.721Z,39.10
2018-01-21T03:22:07.707Z,37.20
2018-01-21T03:23:07.700Z,39.30
2018-01-21T03:24:07.690Z,41.20
2018-01-21T03:25:07.681Z,39.90
2018-01-21T03:26:07.680Z,40.50
2018-01-21T03:27:07.660Z,40.50
2018-01-21T03:28:07.657Z,40.20
2018-01-21T03:29:07.641Z,41.20
2018-01-21T03:30:07.633Z,42.40
2018-01-21T03:31:07.624Z,40.80
2018-01-21T03:32:07.612Z,40.20
2018-01-21T03:33:07.602Z,42.20
2018-01-21T03:34:07.590Z,42.20
2018-01-21T03:35:07.581Z,41.50
2018-01-21T03:36:07.571Z,42.70
2018-01-21T03:37:07.562Z,43.30
2018-01-21T03:38:07.555Z,42.40
2018-01-21T03:39:07.542Z,42.80
2018-01-21T03:40:07.533Z,41.90
2018-01-21T03:41:07.519Z,42.40
2018-01-21T03:42:07.513Z,42.30
2018-01-21T03:43:07.506Z,43.50
2018-01-21T03:44:07.493Z,42.60
2018-01-21T03:45:07.481Z,42.50
2018-01-21T03:46:07.475Z,43.00
2018-01-21T03:47:07.459Z,42.20
2018-01-21T03:48:07.452Z,43.70
2018-01-21T03:49:07.442Z,43.10
2018-01-21T03:50:07.433Z,43.40
2018-01-21T03:51:07.418Z,43.40
2018-01-21T03:52:07.411Z,42.90
2018-01-21T03:53:07.401Z,43.00
2018-01-21T03:54:07.391Z,43.80
2018-01-21T03:55:07.383Z,44.50
2018-01-21T03:56:07.370Z,43.90
2018-01-21T03:57:07.362Z,45.10
2018-01-21T03:58:07.350Z,43.50
2018-01-21T03:59:07.338Z,43.00
2018-01-21T04:00:07.330Z,44.90
2018-01-21T04:01:07.321Z,43.70
2018-01-21T04:02:07.310Z,44.60
2018-01-21T04:03:07.300Z,45.20
2018-01-21T04:04:07.300Z,44.60
2018-01-21T04:05:07.279Z,45.50
2018-01-21T04:06:07.270Z,44.80
2018-01-21T04:07:07.261Z,45.10
2018-01-21T04:08:07.251Z,46.40
2018-01-21T04:09:07.248Z,46.10
2018-01-21T04:10:07.229Z,47.20
2018-01-21T04:11:07.217Z,46.00
2018-01-21T04:12:07.211Z,45.80
2018-01-21T04:13:07.198Z,45.50
2018-01-21T04:14:07.231Z,47.50
2018-01-21T04:15:07.187Z,45.10
2018-01-21T04:16:07.171Z,44.10
2018-01-21T04:17:07.161Z,43.90
2018-01-21T04:18:07.148Z,43.70
2018-01-21T04:19:07.140Z,44.90
2018-01-21T04:20:07.130Z,44.30
2018-01-21T04:21:07.127Z,44.00
2018-01-21T04:22:07.110Z,42.90
2018-01-21T04:23:07.102Z,44.60
2018-01-21T04:24:07.092Z,41.00
2018-01-21T04:25:07.082Z,43.40
2018-01-21T04:26:07.069Z,45.90
2018-01-21T04:27:07.065Z,43.00
2018-01-21T04:28:07.054Z,41.90
2018-01-21T04:29:07.040Z,41.20
2018-01-21T04:30:07.028Z,43.50
2018-01-21T04:31:07.022Z,41.10
2018-01-21T04:32:07.013Z,44.60
2018-01-21T04:33:07.001Z,44.40
2018-01-21T04:34:06.990Z,44.10
2018-01-21T04:35:06.984Z,43.50
2018-01-21T04:36:06.970Z,44.40
2018-01-21T04:37:06.963Z,43.70
2018-01-21T04:38:06.951Z,45.00
2018-01-21T04:39:06.947Z,43.40
2018-01-21T04:40:06.933Z,43.80
2018-01-21T04:41:06.923Z,45.80
2018-01-21T04:42:06.908Z,45.50
2018-01-21T04:43:06.905Z,44.30
2018-01-21T04:44:06.894Z,45.60
2018-01-21T04:45:06.881Z,44.10
2018-01-21T04:46:06.886Z,45.40
2018-01-21T04:47:06.875Z,45.40
2018-01-21T04:48:06.850Z,44.30
2018-01-21T04:49:06.844Z,44.30
2018-01-21T04:50:06.837Z,45.40
2018-01-21T04:51:06.824Z,46.00
2018-01-21T04:52:06.819Z,47.30
2018-01-21T04:53:06.805Z,45.20
2018-01-21T04:54:06.791Z,45.40
2018-01-21T04:55:06.784Z,47.40
2018-01-21T04:56:06.828Z,48.10
2018-01-21T04:57:06.765Z,48.30
2018-01-21T04:58:06.758Z,45.80
2018-01-21T04:59:06.744Z,48.10
2018-01-21T05:00:06.737Z,46.80
2018-01-21T05:01:06.725Z,47.90
2018-01-21T05:02:06.714Z,47.40
2018-01-21T05:03:06.714Z,47.30
2018-01-21T05:04:06.697Z,47.70
2018-01-21T05:05:06.685Z,46.20
2018-01-21T05:06:06.678Z,48.10
2018-01-21T05:07:06.665Z,47.20
2018-01-21T05:08:06.655Z,48.80
2018-01-21T05:09:06.645Z,47.60
2018-01-21T05:10:06.635Z,47.70
2018-01-21T05:11:06.625Z,46.60
2018-01-21T05:12:06.615Z,48.10
2018-01-21T05:13:06.605Z,47.50
2018-01-21T05:14:06.593Z,45.80
2018-01-21T05:15:06.584Z,45.10
2018-01-21T05:16:06.577Z,45.20
2018-01-21T05:17:06.571Z,44.80
2018-01-21T05:18:06.556Z,46.10
2018-01-21T05:19:06.542Z,46.80
2018-01-21T05:20:06.535Z,46.80
2018-01-21T05:21:06.527Z,46.20
2018-01-21T05:22:06.513Z,47.70
2018-01-21T05:23:06.505Z,46.60
2018-01-21T05:24:06.495Z,47.70
2018-01-21T05:25:06.484Z,46.70
2018-01-21T05:26:06.473Z,46.20
2018-01-21T05:27:06.464Z,45.10
2018-01-21T05:28:06.456Z,44.80
2018-01-21T05:29:06.445Z,41.90
2018-01-21T05:30:06.434Z,42.70
2018-01-21T05:31:06.423Z,44.00
2018-01-21T05:32:06.416Z,43.50
2018-01-21T05:33:06.404Z,45.20
2018-01-21T05:34:06.393Z,45.50
2018-01-21T05:35:06.383Z,43.40
2018-01-21T05:36:06.384Z,42.80
2018-01-21T05:37:06.367Z,46.30
2018-01-21T05:38:06.356Z,44.70
2018-01-21T05:39:06.344Z,41.20
2018-01-21T05:40:06.335Z,46.40
2018-01-21T05:41:06.337Z,46.90
2018-01-21T05:42:06.313Z,47.00
2018-01-21T05:43:06.309Z,43.90
2018-01-21T05:44:06.294Z,45.30
2018-01-21T05:45:06.284Z,43.30
2018-01-21T05:46:06.280Z,44.40
2018-01-21T05:47:06.267Z,43.40
2018-01-21T05:48:06.254Z,45.20
2018-01-21T05:49:06.245Z,44.20
2018-01-21T05:50:06.233Z,42.90
2018-01-21T05:51:06.224Z,45.50
2018-01-21T05:52:06.215Z,44.90
2018-01-21T05:53:06.206Z,44.60
2018-01-21T05:54:06.194Z,44.50
2018-01-21T05:55:06.186Z,43.30
2018-01-21T05:56:06.174Z,43.20
2018-01-21T05:57:06.165Z,44.00
2018-01-21T05:58:06.157Z,43.50
2018-01-21T05:59:06.145Z,45.60
2018-01-21T06:00:06.136Z,45.70
2018-01-21T06:01:06.127Z,41.70
2018-01-21T06:02:06.113Z,41.10
2018-01-21T06:03:06.109Z,42.40
2018-01-21T06:04:06.093Z,40.90
2018-01-21T06:05:06.086Z,41.30
2018-01-21T06:06:06.077Z,41.00
2018-01-21T06:07:06.066Z,41.40
2018-01-21T06:08:06.054Z,40.50
2018-01-21T06:09:06.048Z,39.40
2018-01-21T06:10:06.036Z,39.60
2018-01-21T06:11:06.026Z,40.40
2018-01-21T06:12:06.020Z,41.10
2018-01-21T06:13:06.007Z,41.00
2018-01-21T06:14:06.002Z,39.70
2018-01-21T06:15:05.986Z,39.50
2018-01-21T06:16:05.976Z,41.50
2018-01-21T06:17:05.966Z,41.00
2018-01-21T06:18:05.955Z,41.30
2018-01-21T06:19:05.946Z,41.60
2018-01-21T06:20:05.942Z,41.90
2018-01-21T06:21:05.927Z,42.40
2018-01-21T06:22:05.919Z,42.00
2018-01-21T06:23:05.909Z,41.20
2018-01-21T06:24:05.902Z,39.30
2018-01-21T06:25:05.884Z,41.30
2018-01-21T06:26:05.878Z,39.60
2018-01-21T06:27:05.867Z,39.90
2018-01-21T06:28:05.856Z,40.70
2018-01-21T06:29:05.848Z,42.60
2018-01-21T06:30:05.840Z,42.50
2018-01-21T06:31:05.829Z,43.00
2018-01-21T06:32:05.819Z,42.50
2018-01-21T06:33:05.804Z,43.60
2018-01-21T06:34:05.798Z,46.70
2018-01-21T06:35:05.789Z,45.50
2018-01-21T06:36:05.778Z,45.10
2018-01-21T06:37:05.772Z,45.40
2018-01-21T06:38:05.760Z,45.70
2018-01-21T06:39:05.747Z,45.40
2018-01-21T06:40:05.739Z,45.20
2018-01-21T06:41:05.731Z,43.70
2018-01-21T06:42:05.719Z,43.10
2018-01-21T06:43:05.709Z,44.10
2018-01-21T06:44:05.700Z,41.30
2018-01-21T06:45:05.687Z,42.00
2018-01-21T06:46:05.679Z,42.50
2018-01-21T06:47:05.671Z,44.90
2018-01-21T06:48:05.661Z,44.00
2018-01-21T06:49:05.659Z,42.70
2018-01-21T06:50:05.642Z,41.10
2018-01-21T06:51:05.633Z,42.00
2018-01-21T06:52:05.621Z,42.80
2018-01-21T06:53:05.611Z,42.70
2018-01-21T06:54:05.620Z,42.60
2018-01-21T06:55:05.596Z,45.50
2018-01-21T06:56:05.580Z,43.20
2018-01-21T06:57:05.575Z,43.70
2018-01-21T06:58:05.558Z,39.80
2018-01-21T06:59:05.551Z,44.50
2018-01-21T07:00:05.544Z,43.90
2018-01-21T07:01:05.532Z,44.70
2018-01-21T07:02:05.522Z,44.40
2018-01-21T07:03:05.510Z,46.40
2018-01-21T07:04:05.497Z,40.90
2018-01-21T07:05:05.492Z,42.00
2018-01-21T07:06:05.481Z,42.70
2018-01-21T07:07:05.474Z,40.50
2018-01-21T07:08:05.462Z,41.20
2018-01-21T07:09:05.450Z,40.70
2018-01-21T07:10:05.441Z,42.80
2018-01-21T07:11:05.431Z,43.10
2018-01-21T07:12:05.421Z,43.30
2018-01-21T07:13:05.412Z,43.40
2018-01-21T07:14:05.400Z,43.80
2018-01-21T07:15:05.392Z,44.40
2018-01-21T07:16:05.380Z,43.10
2018-01-21T07:17:05.370Z,42.60
2018-01-21T07:18:05.361Z,41.00
2018-01-21T07:19:05.351Z,43.10
2018-01-21T07:20:05.344Z,43.10
2018-01-21T07:21:05.331Z,43.20
2018-01-21T07:22:05.319Z,43.70
2018-01-21T07:23:05.311Z,44.80
2018-01-21T07:24:05.301Z,44.30
2018-01-21T07:25:05.290Z,47.70
2018-01-21T07:26:05.287Z,45.50
2018-01-21T07:27:05.270Z,46.20
2018-01-21T07:28:05.258Z,44.80
2018-01-21T07:29:05.251Z,45.10
2018-01-21T07:30:05.242Z,44.00
2018-01-21T07:31:05.242Z,47.70
2018-01-21T07:32:05.221Z,46.30
2018-01-21T07:33:05.212Z,47.20
2018-01-21T07:34:05.199Z,47.60
2018-01-21T07:35:05.189Z,49.50
2018-01-21T07:36:05.197Z,47.70
2018-01-21T07:37:05.178Z,48.60
2018-01-21T07:38:05.176Z,47.50
2018-01-21T07:39:05.150Z,45.90
2018-01-21T07:40:05.142Z,48.90
2018-01-21T07:41:05.134Z,44.00
2018-01-21T07:42:05.124Z,45.10
2018-01-21T07:43:05.112Z,43.70
2018-01-21T07:44:05.106Z,44.90
2018-01-21T07:45:05.093Z,42.50
2018-01-21T07:46:05.086Z,41.60
2018-01-21T07:47:05.074Z,42.70
2018-01-21T07:48:05.064Z,41.70
2018-01-21T07:49:05.054Z,41.90
2018-01-21T07:50:05.046Z,43.50
2018-01-21T07:51:05.037Z,40.80
2018-01-21T07:52:05.025Z,41.80
2018-01-21T07:53:05.014Z,39.50
2018-01-21T07:54:05.006Z,40.50
2018-01-21T07:55:04.995Z,41.20
2018-01-21T07:56:04.985Z,40.50
2018-01-21T07:57:04.975Z,39.00
2018-01-21T07:58:04.966Z,38.00
2018-01-21T07:59:04.953Z,38.10
2018-01-21T08:00:04.945Z,39.20
2018-01-21T08:01:04.938Z,39.20
2018-01-21T08:02:04.968Z,39.60
2018-01-21T08:03:04.920Z,42.10
2018-01-21T08:04:04.910Z,41.00
2018-01-21T08:05:04.898Z,40.70
2018-01-21T08:06:04.888Z,40.80
2018-01-21T08:07:04.883Z,38.40
2018-01-21T08:08:04.871Z,39.00
2018-01-21T08:09:04.864Z,40.90
2018-01-21T08:10:04.853Z,38.70
2018-01-21T08:11:04.842Z,39.40
2018-01-21T08:12:04.833Z,38.60
2018-01-21T08:13:04.825Z,37.70
2018-01-21T08:14:04.814Z,37.70
2018-01-21T08:15:04.806Z,38.60
2018-01-21T08:16:04.796Z,38.30
2018-01-21T08:17:04.785Z,39.60
2018-01-21T08:18:04.773Z,37.50
2018-01-21T08:19:04.766Z,38.20
2018-01-21T08:20:04.759Z,37.10
2018-01-21T08:21:04.750Z,39.20
2018-01-21T08:22:04.739Z,37.30
2018-01-21T08:23:04.731Z,36.70
2018-01-21T08:24:04.721Z,38.20
2018-01-21T08:25:04.708Z,40.70
2018-01-21T08:26:04.705Z,42.70
2018-01-21T08:27:04.691Z,42.20
2018-01-21T08:28:04.712Z,44.20
2018-01-21T08:29:04.675Z,54.70
2018-01-21T08:30:04.667Z,43.10
2018-01-21T08:31:04.660Z,37.40
2018-01-21T08:32:04.646Z,37.30
2018-01-21T08:33:04.637Z,35.30
2018-01-21T08:34:04.633Z,35.40
2018-01-21T08:35:04.630Z,34.10
2018-01-21T08:36:04.611Z,35.00
2018-01-21T08:37:04.596Z,35.80
2018-01-21T08:38:04.593Z,34.30
2018-01-21T08:39:04.584Z,36.40
2018-01-21T08:40:04.576Z,38.00
2018-01-21T08:41:04.564Z,38.70
2018-01-21T08:42:04.553Z,36.40
2018-01-21T08:43:04.545Z,36.70
2018-01-21T08:44:04.530Z,35.50
2018-01-21T08:45:04.526Z,33.00
2018-01-21T08:46:04.513Z,36.00
2018-01-21T08:47:04.510Z,34.00
2018-01-21T08:48:04.498Z,34.80
2018-01-21T08:49:04.492Z,35.10
2018-01-21T08:50:04.484Z,33.30
2018-01-21T08:51:04.469Z,35.30
2018-01-21T08:52:04.462Z,34.00
2018-01-21T08:53:04.453Z,32.20
2018-01-21T08:54:04.442Z,33.90
2018-01-21T08:55:04.434Z,33.90
2018-01-21T08:56:04.427Z,33.40
2018-01-21T08:57:04.417Z,35.80
2018-01-21T08:58:04.407Z,33.90
2018-01-21T08:59:04.398Z,30.90
2018-01-21T09:00:04.388Z,32.90
2018-01-21T09:01:04.380Z,33.00
2018-01-21T09:02:04.370Z,33.50
2018-01-21T09:03:04.361Z,34.40
2018-01-21T09:04:04.353Z,36.60
2018-01-21T09:05:04.345Z,35.70
2018-01-21T09:06:04.336Z,34.80
2018-01-21T09:07:04.324Z,34.30
2018-01-21T09:08:04.316Z,33.00
2018-01-21T09:09:04.306Z,34.10
2018-01-21T09:10:04.297Z,34.80
2018-01-21T09:11:04.286Z,33.40
2018-01-21T09:12:04.280Z,33.60
2018-01-21T09:13:04.272Z,33.10
2018-01-21T09:14:04.262Z,33.60
2018-01-21T09:15:04.251Z,34.70
2018-01-21T09:16:04.239Z,32.70
2018-01-21T09:17:04.234Z,33.00
2018-01-21T09:18:04.223Z,33.00
2018-01-21T09:19:04.226Z,31.80
2018-01-21T09:20:04.211Z,32.20
2018-01-21T09:21:04.214Z,31.10
2018-01-21T09:22:04.186Z,32.30
2018-01-21T09:23:04.180Z,34.40
2018-01-21T09:24:04.169Z,35.90
2018-01-21T09:25:04.159Z,34.10
2018-01-21T09:26:04.153Z,32.10
2018-01-21T09:27:04.142Z,33.10
2018-01-21T09:28:04.135Z,30.60
2018-01-21T09:29:04.128Z,31.20
2018-01-21T09:30:04.118Z,30.00
2018-01-21T09:31:04.116Z,30.40
2018-01-21T09:32:04.098Z,30.90
2018-01-21T09:33:04.087Z,28.90
2018-01-21T09:34:04.079Z,28.60
2018-01-21T09:35:04.075Z,28.90
2018-01-21T09:36:04.061Z,30.20
2018-01-21T09:37:04.053Z,31.60
2018-01-21T09:38:04.041Z,30.00
2018-01-21T09:39:04.036Z,31.00
2018-01-21T09:40:04.027Z,28.80
2018-01-21T09:41:04.017Z,31.20
2018-01-21T09:42:04.011Z,31.90
2018-01-21T09:43:03.998Z,30.30
2018-01-21T09:44:03.990Z,31.10
2018-01-21T09:45:03.987Z,30.20
2018-01-21T09:46:03.977Z,31.70
2018-01-21T09:47:03.965Z,31.60
2018-01-21T09:48:03.952Z,33.90
2018-01-21T09:49:03.946Z,32.40
2018-01-21T09:50:03.936Z,32.40
2018-01-21T09:51:03.926Z,31.30
2018-01-21T09:52:03.918Z,32.50
2018-01-21T09:53:03.909Z,32.00
2018-01-21T09:54:03.898Z,32.20
2018-01-21T09:55:03.893Z,32.60
2018-01-21T09:56:03.879Z,31.00
2018-01-21T09:57:03.880Z,29.70
2018-01-21T09:58:03.862Z,28.00
2018-01-21T09:59:03.854Z,29.90
2018-01-21T10:00:03.844Z,31.70
2018-01-21T10:01:03.836Z,31.80
2018-01-21T10:02:03.825Z,30.70
2018-01-21T10:03:03.815Z,29.70
2018-01-21T10:04:03.808Z,31.20
2018-01-21T10:05:03.800Z,31.40
2018-01-21T10:06:03.789Z,31.30
2018-01-21T10:07:03.780Z,29.10
2018-01-21T10:08:03.770Z,31.20
2018-01-21T10:09:03.763Z,31.20
2018-01-21T10:10:03.753Z,30.00
2018-01-21T10:11:03.748Z,30.00
2018-01-21T10:12:03.737Z,31.30
2018-01-21T10:13:03.725Z,31.40
2018-01-21T10:14:03.712Z,33.00
2018-01-21T10:15:03.711Z,33.10
2018-01-21T10:16:03.698Z,32.80
2018-01-21T10:17:03.691Z,32.90
2018-01-21T10:18:03.682Z,31.90
2018-01-21T10:19:03.673Z,33.70
2018-01-21T10:20:03.662Z,32.00
2018-01-21T10:21:03.653Z,31.20
2018-01-21T10:22:03.643Z,31.20
2018-01-21T10:23:03.632Z,32.10
2018-01-21T10:24:03.626Z,30.70
2018-01-21T10:25:03.617Z,30.80
2018-01-21T10:26:03.606Z,31.50
2018-01-21T10:27:03.602Z,31.20
2018-01-21T10:28:03.590Z,32.60
2018-01-21T10:29:03.582Z,32.10
2018-01-21T10:30:03.570Z,32.40
2018-01-21T10:31:03.564Z,31.70
2018-01-21T10:32:03.554Z,30.50
2018-01-21T10:33:03.545Z,31.70
2018-01-21T10:34:03.534Z,32.70
2018-01-21T10:35:03.524Z,33.10
2018-01-21T10:36:03.522Z,32.70
2018-01-21T10:37:03.514Z,30.00
2018-01-21T10:38:03.499Z,31.10
2018-01-21T10:39:03.489Z,30.00
2018-01-21T10:40:03.478Z,30.90
2018-01-21T10:41:03.472Z,32.40
2018-01-21T10:42:03.466Z,33.70
2018-01-21T10:43:03.454Z,32.40
2018-01-21T10:44:03.445Z,30.20
2018-01-21T10:45:03.442Z,29.10
2018-01-21T10:46:03.429Z,29.70
2018-01-21T10:47:03.418Z,30.50
2018-01-21T10:48:03.410Z,29.30
2018-01-21T10:49:03.403Z,30.70
2018-01-21T10:50:03.393Z,31.50
2018-01-21T10:51:03.384Z,31.10
2018-01-21T10:52:03.373Z,31.90
2018-01-21T10:53:03.365Z,29.30
2018-01-21T10:54:03.365Z,29.70
2018-01-21T10:55:03.345Z,32.80
2018-01-21T10:56:03.337Z,32.70
2018-01-21T10:57:03.332Z,33.30
2018-01-21T10:58:03.315Z,32.50
2018-01-21T10:59:03.311Z,31.90
2018-01-21T11:00:03.303Z,31.30
2018-01-21T11:01:03.293Z,31.40
2018-01-21T11:02:03.284Z,31.30
2018-01-21T11:03:03.276Z,28.90
2018-01-21T11:04:03.268Z,29.10
2018-01-21T11:05:03.260Z,28.90
2018-01-21T11:06:03.249Z,29.80
2018-01-21T11:07:03.242Z,28.90
2018-01-21T11:08:03.232Z,29.70
2018-01-21T11:09:03.224Z,30.00
2018-01-21T11:10:03.216Z,29.70
2018-01-21T11:11:03.205Z,29.30
2018-01-21T11:12:03.198Z,28.40
2018-01-21T11:13:03.191Z,28.40
2018-01-21T11:14:03.178Z,30.00
2018-01-21T11:15:03.170Z,29.90
2018-01-21T11:16:03.161Z,29.90
2018-01-21T11:17:03.153Z,30.70
2018-01-21T11:18:03.143Z,29.70
2018-01-21T11:19:03.133Z,27.60
2018-01-21T11:20:03.124Z,29.80
2018-01-21T11:21:03.118Z,29.00
2018-01-21T11:22:03.106Z,29.00
2018-01-21T11:23:03.144Z,28.80
2018-01-21T11:24:03.090Z,29.60
2018-01-21T11:25:03.083Z,30.30
2018-01-21T11:26:03.067Z,29.90
2018-01-21T11:27:03.063Z,31.00
2018-01-21T11:28:03.055Z,31.10
2018-01-21T11:29:03.052Z,30.60
2018-01-21T11:30:03.042Z,32.20
2018-01-21T11:31:03.032Z,29.30
2018-01-21T11:32:03.020Z,29.40
2018-01-21T11:33:03.014Z,29.90
2018-01-21T11:34:03.003Z,29.50
2018-01-21T11:35:02.995Z,29.30
2018-01-21T11:36:02.985Z,30.00
2018-01-21T11:37:02.980Z,32.80
2018-01-21T11:38:02.969Z,32.90
2018-01-21T11:39:02.960Z,31.40
2018-01-21T11:40:02.956Z,33.20
2018-01-21T11:41:02.940Z,35.10
2018-01-21T11:42:02.936Z,37.60
2018-01-21T11:43:02.925Z,37.30
2018-01-21T11:44:02.919Z,36.80
2018-01-21T11:45:02.918Z,36.60
2018-01-21T11:46:02.898Z,34.20
2018-01-21T11:47:02.891Z,35.10
2018-01-21T11:48:02.881Z,36.50
2018-01-21T11:49:02.875Z,35.40
2018-01-21T11:50:02.869Z,37.70
2018-01-21T11:51:02.857Z,36.40
2018-01-21T11:52:02.850Z,37.00
2018-01-21T11:53:02.840Z,38.00
2018-01-21T11:54:02.830Z,37.10
2018-01-21T11:55:02.822Z,36.20
2018-01-21T11:56:02.815Z,37.10
2018-01-21T11:57:02.812Z,38.10
2018-01-21T11:58:02.824Z,36.60
2018-01-21T11:59:02.790Z,36.30
2018-01-21T12:00:02.776Z,36.40
2018-01-21T12:01:02.771Z,35.90
2018-01-21T12:02:02.760Z,34.50
2018-01-21T12:03:02.755Z,34.00
2018-01-21T12:04:02.747Z,34.30
2018-01-21T12:05:02.770Z,32.20
2018-01-21T12:06:02.731Z,30.60
2018-01-21T12:07:02.721Z,30.50
2018-01-21T12:08:02.710Z,29.60
2018-01-21T12:09:02.702Z,32.90
2018-01-21T12:10:02.696Z,32.90
2018-01-21T12:11:02.687Z,33.20
2018-01-21T12:12:02.678Z,33.50
2018-01-21T12:13:02.673Z,33.70
2018-01-21T12:14:02.658Z,32.60
2018-01-21T12:15:02.652Z,33.70
2018-01-21T12:16:02.643Z,34.30
2018-01-21T12:17:02.639Z,31.70
2018-01-21T12:18:02.636Z,26.20
2018-01-21T12:19:02.619Z,27.10
2018-01-21T12:20:02.611Z,24.70
2018-01-21T12:21:02.603Z,21.80
2018-01-21T12:22:02.594Z,23.50
2018-01-21T12:23:02.585Z,25.70
2018-01-21T12:24:02.577Z,23.40
2018-01-21T12:25:02.569Z,23.00
2018-01-21T12:26:02.562Z,23.00
2018-01-21T12:27:02.551Z,25.10
2018-01-21T12:28:02.539Z,25.00
2018-01-21T12:29:02.535Z,25.20
2018-01-21T12:30:02.528Z,24.90
2018-01-21T12:31:02.512Z,26.40
2018-01-21T12:32:02.510Z,27.90
2018-01-21T12:33:02.502Z,27.60
2018-01-21T12:34:02.496Z,26.80
2018-01-21T12:35:02.481Z,28.10
2018-01-21T12:36:02.476Z,27.40
2018-01-21T12:37:02.467Z,28.20
2018-01-21T12:38:02.458Z,25.70
2018-01-21T12:39:02.452Z,26.60
2018-01-21T12:40:02.441Z,25.90
2018-01-21T12:41:02.439Z,25.10
2018-01-21T12:42:02.423Z,26.50
2018-01-21T12:43:02.415Z,25.20
2018-01-21T12:44:02.416Z,24.70
2018-01-21T12:45:02.395Z,26.20
2018-01-21T12:46:02.448Z,26.40
2018-01-21T12:47:02.377Z,27.80
2018-01-21T12:48:02.373Z,28.90
2018-01-21T12:49:02.362Z,28.70
2018-01-21T12:50:02.356Z,29.20
2018-01-21T12:51:02.359Z,29.40
2018-01-21T12:52:02.339Z,29.40